sensor_id;sensor_type;location;lat;lon;timestamp;temperature;humidity
71184;DHT22;58887;51.980;4.464;2022-09-12T00:00:19;16.64;80.98
71184;DHT22;58887;51.980;4.464;2022-09-12T00:02:51;16.65;81.40
71184;DHT22;58887;51.980;4.464;2022-09-12T00:05:16;16.62;81.35
71184;DHT22;58887;51.980;4.464;2022-09-12T00:07:42;16.60;81.28
71184;DHT22;58887;51.980;4.464;2022-09-12T00:10:07;16.57;81.70
71184;DHT22;58887;51.980;4.464;2022-09-12T00:12:33;16.54;81.48
71184;DHT22;58887;51.980;4.464;2022-09-12T00:14:59;16.48;80.77
71184;DHT22;58887;51.980;4.464;2022-09-12T00:17:24;16.48;80.67
71184;DHT22;58887;51.980;4.464;2022-09-12T00:19:50;16.45;80.87
71184;DHT22;58887;51.980;4.464;2022-09-12T00:22:15;16.44;80.84
71184;DHT22;58887;51.980;4.464;2022-09-12T00:24:41;16.47;81.00
71184;DHT22;58887;51.980;4.464;2022-09-12T00:27:06;16.50;80.48
71184;DHT22;58887;51.980;4.464;2022-09-12T00:29:32;16.48;81.30
71184;DHT22;58887;51.980;4.464;2022-09-12T00:31:57;16.52;81.29
71184;DHT22;58887;51.980;4.464;2022-09-12T00:34:23;16.55;81.23
71184;DHT22;58887;51.980;4.464;2022-09-12T00:36:48;16.54;80.50
71184;DHT22;58887;51.980;4.464;2022-09-12T00:39:15;16.58;80.38
71184;DHT22;58887;51.980;4.464;2022-09-12T00:41:42;16.54;80.17
71184;DHT22;58887;51.980;4.464;2022-09-12T00:47:05;16.55;80.95
71184;DHT22;58887;51.980;4.464;2022-09-12T00:52:23;16.64;81.10
71184;DHT22;58887;51.980;4.464;2022-09-12T00:55:17;16.78;80.57
71184;DHT22;58887;51.980;4.464;2022-09-12T00:57:50;16.93;80.26
71184;DHT22;58887;51.980;4.464;2022-09-12T01:00:20;16.99;79.84
71184;DHT22;58887;51.980;4.464;2022-09-12T01:03:11;17.05;79.65
71184;DHT22;58887;51.980;4.464;2022-09-12T01:05:40;17.10;78.84
71184;DHT22;58887;51.980;4.464;2022-09-12T01:08:10;17.23;78.24
71184;DHT22;58887;51.980;4.464;2022-09-12T01:10:39;17.32;77.98
71184;DHT22;58887;51.980;4.464;2022-09-12T01:13:07;17.32;78.22
71184;DHT22;58887;51.980;4.464;2022-09-12T01:15:36;17.34;77.80
71184;DHT22;58887;51.980;4.464;2022-09-12T01:24:07;17.37;77.54
71184;DHT22;58887;51.980;4.464;2022-09-12T01:30:05;17.49;76.91
71184;DHT22;58887;51.980;4.464;2022-09-12T01:35:20;17.40;77.12
71184;DHT22;58887;51.980;4.464;2022-09-12T01:38:17;17.40;77.02
71184;DHT22;58887;51.980;4.464;2022-09-12T01:46:34;17.22;77.65
71184;DHT22;58887;51.980;4.464;2022-09-12T01:49:24;17.03;77.81
71184;DHT22;58887;51.980;4.464;2022-09-12T01:54:24;16.89;78.24
71184;DHT22;58887;51.980;4.464;2022-09-12T01:56:57;16.86;79.01
71184;DHT22;58887;51.980;4.464;2022-09-12T01:59:39;16.82;78.72
71184;DHT22;58887;51.980;4.464;2022-09-12T02:02:41;16.83;78.87
71184;DHT22;58887;51.980;4.464;2022-09-12T02:05:24;16.91;78.68
71184;DHT22;58887;51.980;4.464;2022-09-12T02:08:22;16.92;78.48
71184;DHT22;58887;51.980;4.464;2022-09-12T02:10:56;16.89;78.81
71184;DHT22;58887;51.980;4.464;2022-09-12T02:14:23;16.82;78.59
71184;DHT22;58887;51.980;4.464;2022-09-12T02:19:10;16.73;79.08
71184;DHT22;58887;51.980;4.464;2022-09-12T02:21:41;16.75;79.00
71184;DHT22;58887;51.980;4.464;2022-09-12T02:24:13;16.71;79.04
71184;DHT22;58887;51.980;4.464;2022-09-12T02:27:00;16.73;79.03
71184;DHT22;58887;51.980;4.464;2022-09-12T02:29:28;16.73;79.51
71184;DHT22;58887;51.980;4.464;2022-09-12T02:32:04;16.78;79.38
71184;DHT22;58887;51.980;4.464;2022-09-12T02:34:50;16.85;79.28
71184;DHT22;58887;51.980;4.464;2022-09-12T02:40:15;17.03;78.77
71184;DHT22;58887;51.980;4.464;2022-09-12T02:42:41;17.09;78.48
71184;DHT22;58887;51.980;4.464;2022-09-12T02:45:08;17.16;78.25
71184;DHT22;58887;51.980;4.464;2022-09-12T02:50:53;17.20;78.22
71184;DHT22;58887;51.980;4.464;2022-09-12T02:53:19;17.24;78.22
71184;DHT22;58887;51.980;4.464;2022-09-12T02:55:45;17.18;78.80
71184;DHT22;58887;51.980;4.464;2022-09-12T02:58:16;17.23;78.24
71184;DHT22;58887;51.980;4.464;2022-09-12T03:01:19;17.22;78.38
71184;DHT22;58887;51.980;4.464;2022-09-12T03:06:45;17.32;77.83
71184;DHT22;58887;51.980;4.464;2022-09-12T03:09:30;17.37;77.39
71184;DHT22;58887;51.980;4.464;2022-09-12T03:15:06;17.33;77.88
71184;DHT22;58887;51.980;4.464;2022-09-12T03:20:32;17.46;77.04
71184;DHT22;58887;51.980;4.464;2022-09-12T03:23:24;17.47;77.33
71184;DHT22;58887;51.980;4.464;2022-09-12T03:26:27;17.46;77.08
71184;DHT22;58887;51.980;4.464;2022-09-12T03:28:56;17.49;77.34
71184;DHT22;58887;51.980;4.464;2022-09-12T03:31:24;17.50;77.11
71184;DHT22;58887;51.980;4.464;2022-09-12T03:33:49;17.51;76.96
71184;DHT22;58887;51.980;4.464;2022-09-12T03:36:19;17.49;77.05
71184;DHT22;58887;51.980;4.464;2022-09-12T03:38:45;17.50;76.91
71184;DHT22;58887;51.980;4.464;2022-09-12T03:41:11;17.50;76.84
71184;DHT22;58887;51.980;4.464;2022-09-12T03:43:36;17.44;76.82
71184;DHT22;58887;51.980;4.464;2022-09-12T03:46:01;17.46;76.95
71184;DHT22;58887;51.980;4.464;2022-09-12T03:48:27;17.39;76.78
71184;DHT22;58887;51.980;4.464;2022-09-12T03:50:52;17.34;77.11
71184;DHT22;58887;51.980;4.464;2022-09-12T03:53:18;17.32;77.23
71184;DHT22;58887;51.980;4.464;2022-09-12T03:55:44;17.27;77.38
71184;DHT22;58887;51.980;4.464;2022-09-12T03:58:09;17.29;77.47
71184;DHT22;58887;51.980;4.464;2022-09-12T04:00:35;17.32;77.47
71184;DHT22;58887;51.980;4.464;2022-09-12T04:03:01;17.29;77.42
71184;DHT22;58887;51.980;4.464;2022-09-12T04:05:27;17.27;77.34
71184;DHT22;58887;51.980;4.464;2022-09-12T04:07:52;17.30;77.41
71184;DHT22;58887;51.980;4.464;2022-09-12T04:10:18;17.22;77.50
71184;DHT22;58887;51.980;4.464;2022-09-12T04:12:44;17.18;77.80
71184;DHT22;58887;51.980;4.464;2022-09-12T04:15:09;17.13;77.65
71184;DHT22;58887;51.980;4.464;2022-09-12T04:17:35;17.06;78.01
71184;DHT22;58887;51.980;4.464;2022-09-12T04:20:01;16.98;78.17
71184;DHT22;58887;51.980;4.464;2022-09-12T04:22:27;16.92;78.32
71184;DHT22;58887;51.980;4.464;2022-09-12T04:24:52;16.89;78.52
71184;DHT22;58887;51.980;4.464;2022-09-12T04:27:17;16.82;78.88
71184;DHT22;58887;51.980;4.464;2022-09-12T04:29:43;16.78;79.01
71184;DHT22;58887;51.980;4.464;2022-09-12T04:32:08;16.76;79.31
71184;DHT22;58887;51.980;4.464;2022-09-12T04:34:34;16.71;79.50
71184;DHT22;58887;51.980;4.464;2022-09-12T04:36:59;16.67;79.79
71184;DHT22;58887;51.980;4.464;2022-09-12T04:39:25;16.62;79.47
71184;DHT22;58887;51.980;4.464;2022-09-12T04:41:50;16.60;79.86
71184;DHT22;58887;51.980;4.464;2022-09-12T04:44:16;16.52;79.68
71184;DHT22;58887;51.980;4.464;2022-09-12T04:46:45;16.48;79.84
71184;DHT22;58887;51.980;4.464;2022-09-12T04:49:12;16.41;79.67
71184;DHT22;58887;51.980;4.464;2022-09-12T04:51:40;16.35;79.64
71184;DHT22;58887;51.980;4.464;2022-09-12T04:54:10;16.31;79.61
71184;DHT22;58887;51.980;4.464;2022-09-12T04:56:42;16.25;79.55
71184;DHT22;58887;51.980;4.464;2022-09-12T04:59:09;16.23;80.51
71184;DHT22;58887;51.980;4.464;2022-09-12T05:01:35;16.20;80.14
71184;DHT22;58887;51.980;4.464;2022-09-12T05:04:01;16.12;80.15
71184;DHT22;58887;51.980;4.464;2022-09-12T05:06:30;16.06;80.18
71184;DHT22;58887;51.980;4.464;2022-09-12T05:08:56;16.04;80.50
71184;DHT22;58887;51.980;4.464;2022-09-12T05:11:26;16.02;81.13
71184;DHT22;58887;51.980;4.464;2022-09-12T05:13:52;15.97;81.40
71184;DHT22;58887;51.980;4.464;2022-09-12T05:16:19;15.94;81.06
71184;DHT22;58887;51.980;4.464;2022-09-12T05:18:46;15.89;80.79
71184;DHT22;58887;51.980;4.464;2022-09-12T05:21:15;15.83;80.77
71184;DHT22;58887;51.980;4.464;2022-09-12T05:23:41;15.81;81.05
71184;DHT22;58887;51.980;4.464;2022-09-12T05:26:07;15.82;81.13
71184;DHT22;58887;51.980;4.464;2022-09-12T05:28:36;15.81;81.64
71184;DHT22;58887;51.980;4.464;2022-09-12T05:33:34;15.81;81.32
71184;DHT22;58887;51.980;4.464;2022-09-12T05:36:01;15.78;81.21
71184;DHT22;58887;51.980;4.464;2022-09-12T05:38:27;15.79;81.54
71184;DHT22;58887;51.980;4.464;2022-09-12T05:43:28;15.81;81.71
71184;DHT22;58887;51.980;4.464;2022-09-12T05:46:02;15.89;81.92
71184;DHT22;58887;51.980;4.464;2022-09-12T05:48:29;15.97;81.87
71184;DHT22;58887;51.980;4.464;2022-09-12T05:51:03;16.03;81.98
71184;DHT22;58887;51.980;4.464;2022-09-12T05:53:30;16.06;81.70
71184;DHT22;58887;51.980;4.464;2022-09-12T05:56:14;16.04;81.37
71184;DHT22;58887;51.980;4.464;2022-09-12T05:58:45;16.10;81.64
71184;DHT22;58887;51.980;4.464;2022-09-12T06:01:16;16.10;81.42
71184;DHT22;58887;51.980;4.464;2022-09-12T06:03:43;16.10;81.07
71184;DHT22;58887;51.980;4.464;2022-09-12T06:06:10;16.10;81.20
71184;DHT22;58887;51.980;4.464;2022-09-12T06:08:41;16.10;81.02
71184;DHT22;58887;51.980;4.464;2022-09-12T06:11:09;16.17;81.55
71184;DHT22;58887;51.980;4.464;2022-09-12T06:13:38;16.21;81.59
71184;DHT22;58887;51.980;4.464;2022-09-12T06:18:36;16.35;81.51
71184;DHT22;58887;51.980;4.464;2022-09-12T06:21:07;16.43;81.57
71184;DHT22;58887;51.980;4.464;2022-09-12T06:23:33;16.55;81.51
71184;DHT22;58887;51.980;4.464;2022-09-12T06:26:00;16.64;81.33
71184;DHT22;58887;51.980;4.464;2022-09-12T06:28:26;16.71;81.28
71184;DHT22;58887;51.980;4.464;2022-09-12T06:30:52;16.82;81.11
71184;DHT22;58887;51.980;4.464;2022-09-12T06:33:18;16.89;81.02
71184;DHT22;58887;51.980;4.464;2022-09-12T06:35:43;16.98;81.30
71184;DHT22;58887;51.980;4.464;2022-09-12T06:38:09;17.05;81.24
71184;DHT22;58887;51.980;4.464;2022-09-12T06:40:40;17.22;80.91
71184;DHT22;58887;51.980;4.464;2022-09-12T06:43:09;17.36;80.46
71184;DHT22;58887;51.980;4.464;2022-09-12T06:45:34;17.49;80.24
71184;DHT22;58887;51.980;4.464;2022-09-12T06:48:00;17.53;79.76
71184;DHT22;58887;51.980;4.464;2022-09-12T06:50:25;17.66;79.39
71184;DHT22;58887;51.980;4.464;2022-09-12T06:52:51;17.80;79.11
71184;DHT22;58887;51.980;4.464;2022-09-12T06:55:16;17.95;78.73
71184;DHT22;58887;51.980;4.464;2022-09-12T06:57:42;18.08;78.35
71184;DHT22;58887;51.980;4.464;2022-09-12T07:00:09;18.28;77.79
71184;DHT22;58887;51.980;4.464;2022-09-12T07:02:34;18.39;77.31
71184;DHT22;58887;51.980;4.464;2022-09-12T07:05:00;18.45;76.85
71184;DHT22;58887;51.980;4.464;2022-09-12T07:07:25;18.52;76.82
71184;DHT22;58887;51.980;4.464;2022-09-12T07:09:50;18.59;76.05
71184;DHT22;58887;51.980;4.464;2022-09-12T07:12:16;18.60;75.69
71184;DHT22;58887;51.980;4.464;2022-09-12T07:14:41;18.76;75.49
71184;DHT22;58887;51.980;4.464;2022-09-12T07:17:07;18.89;75.64
71184;DHT22;58887;51.980;4.464;2022-09-12T07:19:33;19.01;74.68
71184;DHT22;58887;51.980;4.464;2022-09-12T07:21:59;19.21;73.61
71184;DHT22;58887;51.980;4.464;2022-09-12T07:24:25;19.22;73.35
71184;DHT22;58887;51.980;4.464;2022-09-12T07:26:50;19.35;73.04
71184;DHT22;58887;51.980;4.464;2022-09-12T07:29:16;19.51;72.79
71184;DHT22;58887;51.980;4.464;2022-09-12T07:31:42;19.45;72.72
71184;DHT22;58887;51.980;4.464;2022-09-12T07:34:08;19.69;72.27
71184;DHT22;58887;51.980;4.464;2022-09-12T07:36:34;19.78;71.63
71184;DHT22;58887;51.980;4.464;2022-09-12T07:38:59;19.89;71.52
71184;DHT22;58887;51.980;4.464;2022-09-12T07:41:31;20.07;70.62
71184;DHT22;58887;51.980;4.464;2022-09-12T07:44:00;20.14;71.37
71184;DHT22;58887;51.980;4.464;2022-09-12T07:46:27;20.16;71.53
71184;DHT22;58887;51.980;4.464;2022-09-12T07:48:58;20.57;71.01
71184;DHT22;58887;51.980;4.464;2022-09-12T07:51:26;20.61;70.06
71184;DHT22;58887;51.980;4.464;2022-09-12T07:53:52;20.68;69.75
71184;DHT22;58887;51.980;4.464;2022-09-12T07:56:18;20.75;69.42
71184;DHT22;58887;51.980;4.464;2022-09-12T07:58:45;20.82;69.05
71184;DHT22;58887;51.980;4.464;2022-09-12T08:01:14;20.72;69.36
71184;DHT22;58887;51.980;4.464;2022-09-12T08:03:42;20.68;69.42
71184;DHT22;58887;51.980;4.464;2022-09-12T08:06:12;20.84;69.47
71184;DHT22;58887;51.980;4.464;2022-09-12T08:08:41;21.30;67.42
71184;DHT22;58887;51.980;4.464;2022-09-12T08:11:09;21.50;66.53
71184;DHT22;58887;51.980;4.464;2022-09-12T08:13:37;21.70;66.60
71184;DHT22;58887;51.980;4.464;2022-09-12T08:16:06;21.90;64.85
71184;DHT22;58887;51.980;4.464;2022-09-12T08:18:34;22.08;65.43
71184;DHT22;58887;51.980;4.464;2022-09-12T08:21:03;22.48;63.46
71184;DHT22;58887;51.980;4.464;2022-09-12T08:23:29;22.52;62.87
71184;DHT22;58887;51.980;4.464;2022-09-12T08:25:57;22.49;63.29
71184;DHT22;58887;51.980;4.464;2022-09-12T08:28:24;22.43;63.33
71184;DHT22;58887;51.980;4.464;2022-09-12T08:30:50;22.60;62.33
71184;DHT22;58887;51.980;4.464;2022-09-12T08:33:17;22.97;60.58
71184;DHT22;58887;51.980;4.464;2022-09-12T08:35:42;23.30;59.72
71184;DHT22;58887;51.980;4.464;2022-09-12T08:38:08;23.45;59.46
71184;DHT22;58887;51.980;4.464;2022-09-12T08:40:45;23.88;57.69
71184;DHT22;58887;51.980;4.464;2022-09-12T08:46:08;23.88;57.18
71184;DHT22;58887;51.980;4.464;2022-09-12T08:48:37;24.23;56.29
71184;DHT22;58887;51.980;4.464;2022-09-12T08:51:03;24.54;54.14
71184;DHT22;58887;51.980;4.464;2022-09-12T08:53:33;24.57;54.71
71184;DHT22;58887;51.980;4.464;2022-09-12T08:56:02;24.57;54.26
71184;DHT22;58887;51.980;4.464;2022-09-12T08:58:38;24.98;54.64
71184;DHT22;58887;51.980;4.464;2022-09-12T09:04:23;24.84;53.93
71184;DHT22;58887;51.980;4.464;2022-09-12T09:18:20;25.25;51.94
71184;DHT22;58887;51.980;4.464;2022-09-12T09:20:55;24.95;53.48
71184;DHT22;58887;51.980;4.464;2022-09-12T09:23:25;25.36;51.05
71184;DHT22;58887;51.980;4.464;2022-09-12T09:25:57;24.75;52.35
71184;DHT22;58887;51.980;4.464;2022-09-12T09:31:37;25.81;49.40
71184;DHT22;58887;51.980;4.464;2022-09-12T09:34:13;26.01;50.25
71184;DHT22;58887;51.980;4.464;2022-09-12T09:39:15;26.41;49.16
71184;DHT22;58887;51.980;4.464;2022-09-12T09:44:28;27.02;48.83
71184;DHT22;58887;51.980;4.464;2022-09-12T09:46:57;27.23;48.32
71184;DHT22;58887;51.980;4.464;2022-09-12T09:49:26;27.35;47.15
71184;DHT22;58887;51.980;4.464;2022-09-12T09:51:53;27.48;47.45
71184;DHT22;58887;51.980;4.464;2022-09-12T09:54:51;27.33;46.83
71184;DHT22;58887;51.980;4.464;2022-09-12T10:05:48;27.58;46.49
71184;DHT22;58887;51.980;4.464;2022-09-12T10:08:30;27.40;44.70
71184;DHT22;58887;51.980;4.464;2022-09-12T10:11:03;27.34;45.22
71184;DHT22;58887;51.980;4.464;2022-09-12T10:18:54;27.27;45.44
71184;DHT22;58887;51.980;4.464;2022-09-12T10:21:41;26.72;47.31
71184;DHT22;58887;51.980;4.464;2022-09-12T10:27:17;26.55;47.09
71184;DHT22;58887;51.980;4.464;2022-09-12T10:29:52;26.42;47.74
71184;DHT22;58887;51.980;4.464;2022-09-12T10:32:35;26.85;46.75
71184;DHT22;58887;51.980;4.464;2022-09-12T10:35:22;27.54;45.22
71184;DHT22;58887;51.980;4.464;2022-09-12T10:37:56;28.06;44.82
71184;DHT22;58887;51.980;4.464;2022-09-12T10:40:37;28.26;44.37
71184;DHT22;58887;51.980;4.464;2022-09-12T10:43:16;28.44;43.78
71184;DHT22;58887;51.980;4.464;2022-09-12T10:45:42;28.46;42.52
71184;DHT22;58887;51.980;4.464;2022-09-12T10:48:29;27.75;44.37
71184;DHT22;58887;51.980;4.464;2022-09-12T10:50:59;27.62;44.33
71184;DHT22;58887;51.980;4.464;2022-09-12T10:53:31;27.62;45.64
71184;DHT22;58887;51.980;4.464;2022-09-12T10:56:09;27.47;45.78
71184;DHT22;58887;51.980;4.464;2022-09-12T11:04:19;28.53;43.40
71184;DHT22;58887;51.980;4.464;2022-09-12T11:07:05;28.47;42.67
71184;DHT22;58887;51.980;4.464;2022-09-12T11:12:11;29.23;42.01
71184;DHT22;58887;51.980;4.464;2022-09-12T11:15:01;29.29;42.24
71184;DHT22;58887;51.980;4.464;2022-09-12T11:17:40;29.15;41.55
71184;DHT22;58887;51.980;4.464;2022-09-12T11:26:58;28.63;41.77
71184;DHT22;58887;51.980;4.464;2022-09-12T11:29:05;27.98;44.22
71184;DHT22;58887;51.980;4.464;2022-09-12T11:43:00;29.73;41.19
71184;DHT22;58887;51.980;4.464;2022-09-12T11:45:40;29.23;40.05
71184;DHT22;58887;51.980;4.464;2022-09-12T11:48:13;29.42;39.94
71184;DHT22;58887;51.980;4.464;2022-09-12T11:50:39;29.18;40.81
71184;DHT22;58887;51.980;4.464;2022-09-12T11:53:22;29.60;39.64
71184;DHT22;58887;51.980;4.464;2022-09-12T11:55:59;29.81;39.94
71184;DHT22;58887;51.980;4.464;2022-09-12T11:58:28;29.22;40.59
71184;DHT22;58887;51.980;4.464;2022-09-12T12:01:02;30.01;38.47
71184;DHT22;58887;51.980;4.464;2022-09-12T12:06:13;29.60;39.12
71184;DHT22;58887;51.980;4.464;2022-09-12T12:08:42;29.72;39.44
71184;DHT22;58887;51.980;4.464;2022-09-12T12:11:10;29.98;39.79
71184;DHT22;58887;51.980;4.464;2022-09-12T12:14:02;30.39;39.52
71184;DHT22;58887;51.980;4.464;2022-09-12T12:16:39;30.48;37.26
71184;DHT22;58887;51.980;4.464;2022-09-12T12:19:25;29.96;38.55
71184;DHT22;58887;51.980;4.464;2022-09-12T12:21:52;30.35;39.95
71184;DHT22;58887;51.980;4.464;2022-09-12T12:24:21;30.90;37.91
71184;DHT22;58887;51.980;4.464;2022-09-12T12:27:03;30.42;39.42
71184;DHT22;58887;51.980;4.464;2022-09-12T12:29:37;30.68;38.83
71184;DHT22;58887;51.980;4.464;2022-09-12T12:48:09;30.48;38.31
71184;DHT22;58887;51.980;4.464;2022-09-12T12:50:35;30.16;37.91
71184;DHT22;58887;51.980;4.464;2022-09-12T12:53:17;30.61;38.90
71184;DHT22;58887;51.980;4.464;2022-09-12T12:55:44;30.66;38.71
71184;DHT22;58887;51.980;4.464;2022-09-12T12:58:30;30.72;36.77
71184;DHT22;58887;51.980;4.464;2022-09-12T13:01:16;31.20;38.02
71184;DHT22;58887;51.980;4.464;2022-09-12T13:03:53;30.90;36.68
71184;DHT22;58887;51.980;4.464;2022-09-12T13:06:41;30.99;36.69
71184;DHT22;58887;51.980;4.464;2022-09-12T13:09:20;31.26;36.96
71184;DHT22;58887;51.980;4.464;2022-09-12T13:12:00;31.29;38.48
71184;DHT22;58887;51.980;4.464;2022-09-12T13:14:57;32.05;35.92
71184;DHT22;58887;51.980;4.464;2022-09-12T13:17:38;30.83;37.20
71184;DHT22;58887;51.980;4.464;2022-09-12T13:22:44;30.92;37.42
71184;DHT22;58887;51.980;4.464;2022-09-12T13:30:53;32.16;36.48
71184;DHT22;58887;51.980;4.464;2022-09-12T13:33:30;32.53;35.74
71184;DHT22;58887;51.980;4.464;2022-09-12T13:36:29;32.22;35.79
71184;DHT22;58887;51.980;4.464;2022-09-12T13:44:45;30.57;38.75
71184;DHT22;58887;51.980;4.464;2022-09-12T13:47:25;30.79;38.14
71184;DHT22;58887;51.980;4.464;2022-09-12T13:49:52;30.79;37.55
71184;DHT22;58887;51.980;4.464;2022-09-12T13:52:22;32.26;36.72
71184;DHT22;58887;51.980;4.464;2022-09-12T13:54:52;32.64;33.66
71184;DHT22;58887;51.980;4.464;2022-09-12T13:57:38;32.25;35.81
71184;DHT22;58887;51.980;4.464;2022-09-12T14:00:15;31.16;37.40
71184;DHT22;58887;51.980;4.464;2022-09-12T14:02:45;30.78;38.69
71184;DHT22;58887;51.980;4.464;2022-09-12T14:05:24;30.62;37.93
71184;DHT22;58887;51.980;4.464;2022-09-12T14:07:52;30.75;37.78
71184;DHT22;58887;51.980;4.464;2022-09-12T14:10:39;30.71;38.34
71184;DHT22;58887;51.980;4.464;2022-09-12T14:13:14;31.23;37.60
71184;DHT22;58887;51.980;4.464;2022-09-12T14:15:45;31.60;35.45
71184;DHT22;58887;51.980;4.464;2022-09-12T14:18:28;31.67;37.00
71184;DHT22;58887;51.980;4.464;2022-09-12T14:21:22;31.33;36.93
71184;DHT22;58887;51.980;4.464;2022-09-12T14:23:53;30.87;38.31
71184;DHT22;58887;51.980;4.464;2022-09-12T14:26:19;30.75;38.52
71184;DHT22;58887;51.980;4.464;2022-09-12T14:28:47;30.35;38.84
71184;DHT22;58887;51.980;4.464;2022-09-12T14:33:48;30.66;38.73
71184;DHT22;58887;51.980;4.464;2022-09-12T14:36:33;30.68;37.90
71184;DHT22;58887;51.980;4.464;2022-09-12T14:39:06;30.97;37.44
71184;DHT22;58887;51.980;4.464;2022-09-12T14:41:40;31.09;37.50
71184;DHT22;58887;51.980;4.464;2022-09-12T14:44:16;30.69;38.83
71184;DHT22;58887;51.980;4.464;2022-09-12T14:46:43;30.83;37.66
71184;DHT22;58887;51.980;4.464;2022-09-12T14:49:20;30.85;38.82
71184;DHT22;58887;51.980;4.464;2022-09-12T14:51:57;30.87;37.68
71184;DHT22;58887;51.980;4.464;2022-09-12T14:57:05;29.96;39.23
71184;DHT22;58887;51.980;4.464;2022-09-12T15:02:30;30.24;37.81
71184;DHT22;58887;51.980;4.464;2022-09-12T15:07:34;30.62;37.68
71184;DHT22;58887;51.980;4.464;2022-09-12T15:10:04;30.64;37.99
71184;DHT22;58887;51.980;4.464;2022-09-12T15:12:30;30.82;37.69
71184;DHT22;58887;51.980;4.464;2022-09-12T15:15:14;30.92;38.24
71184;DHT22;58887;51.980;4.464;2022-09-12T15:17:40;30.64;38.65
71184;DHT22;58887;51.980;4.464;2022-09-12T15:20:06;30.49;38.40
71184;DHT22;58887;51.980;4.464;2022-09-12T15:22:33;29.50;39.87
71184;DHT22;58887;51.980;4.464;2022-09-12T15:25:00;30.24;38.66
71184;DHT22;58887;51.980;4.464;2022-09-12T15:27:25;31.03;37.00
71184;DHT22;58887;51.980;4.464;2022-09-12T15:29:51;31.02;36.81
71184;DHT22;58887;51.980;4.464;2022-09-12T15:32:28;31.00;37.19
71184;DHT22;58887;51.980;4.464;2022-09-12T15:34:54;29.32;40.08
71184;DHT22;58887;51.980;4.464;2022-09-12T15:37:22;28.20;42.17
71184;DHT22;58887;51.980;4.464;2022-09-12T15:39:49;27.45;43.80
71184;DHT22;58887;51.980;4.464;2022-09-12T15:42:15;27.24;44.74
71184;DHT22;58887;51.980;4.464;2022-09-12T15:44:41;27.08;44.90
71184;DHT22;58887;51.980;4.464;2022-09-12T15:47:13;27.74;42.86
71184;DHT22;58887;51.980;4.464;2022-09-12T15:49:39;27.20;44.49
71184;DHT22;58887;51.980;4.464;2022-09-12T15:52:06;27.14;44.98
71184;DHT22;58887;51.980;4.464;2022-09-12T15:54:35;26.51;45.98
71184;DHT22;58887;51.980;4.464;2022-09-12T15:57:01;26.20;46.13
71184;DHT22;58887;51.980;4.464;2022-09-12T15:59:26;26.08;47.63
71184;DHT22;58887;51.980;4.464;2022-09-12T16:01:52;26.73;46.05
71184;DHT22;58887;51.980;4.464;2022-09-12T16:04:25;27.55;45.49
71184;DHT22;58887;51.980;4.464;2022-09-12T16:06:52;27.45;45.34
71184;DHT22;58887;51.980;4.464;2022-09-12T16:09:18;27.43;45.27
71184;DHT22;58887;51.980;4.464;2022-09-12T16:11:43;26.85;46.33
71184;DHT22;58887;51.980;4.464;2022-09-12T16:14:13;26.52;47.78
71184;DHT22;58887;51.980;4.464;2022-09-12T16:16:39;26.35;47.75
71184;DHT22;58887;51.980;4.464;2022-09-12T16:19:05;26.18;48.69
71184;DHT22;58887;51.980;4.464;2022-09-12T16:21:30;26.04;48.03
71184;DHT22;58887;51.980;4.464;2022-09-12T16:23:56;25.96;48.47
71184;DHT22;58887;51.980;4.464;2022-09-12T16:26:21;25.80;48.93
71184;DHT22;58887;51.980;4.464;2022-09-12T16:28:53;25.57;49.82
71184;DHT22;58887;51.980;4.464;2022-09-12T16:31:20;25.57;49.65
71184;DHT22;58887;51.980;4.464;2022-09-12T16:33:45;25.53;49.98
71184;DHT22;58887;51.980;4.464;2022-09-12T16:36:14;25.62;49.97
71184;DHT22;58887;51.980;4.464;2022-09-12T16:38:50;25.60;50.48
71184;DHT22;58887;51.980;4.464;2022-09-12T16:41:18;25.67;50.18
71184;DHT22;58887;51.980;4.464;2022-09-12T16:43:44;25.54;49.72
71184;DHT22;58887;51.980;4.464;2022-09-12T16:46:15;25.43;50.52
71184;DHT22;58887;51.980;4.464;2022-09-12T16:48:43;25.35;51.12
71184;DHT22;58887;51.980;4.464;2022-09-12T16:51:09;25.32;51.10
71184;DHT22;58887;51.980;4.464;2022-09-12T16:53:37;25.30;50.68
71184;DHT22;58887;51.980;4.464;2022-09-12T16:56:03;25.18;51.34
71184;DHT22;58887;51.980;4.464;2022-09-12T16:58:36;25.16;51.41
71184;DHT22;58887;51.980;4.464;2022-09-12T17:01:07;25.14;51.52
71184;DHT22;58887;51.980;4.464;2022-09-12T17:03:34;25.12;51.93
71184;DHT22;58887;51.980;4.464;2022-09-12T17:06:15;25.05;51.60
71184;DHT22;58887;51.980;4.464;2022-09-12T17:08:43;25.04;52.24
71184;DHT22;58887;51.980;4.464;2022-09-12T17:11:18;25.05;52.56
71184;DHT22;58887;51.980;4.464;2022-09-12T17:13:54;24.98;53.16
71184;DHT22;58887;51.980;4.464;2022-09-12T17:16:21;24.91;53.30
71184;DHT22;58887;51.980;4.464;2022-09-12T17:18:47;24.85;54.10
71184;DHT22;58887;51.980;4.464;2022-09-12T17:21:12;24.87;54.75
71184;DHT22;58887;51.980;4.464;2022-09-12T17:23:39;24.91;53.28
71184;DHT22;58887;51.980;4.464;2022-09-12T17:26:06;24.92;53.16
71184;DHT22;58887;51.980;4.464;2022-09-12T17:28:32;24.74;54.32
71184;DHT22;58887;51.980;4.464;2022-09-12T17:31:04;24.64;54.28
71184;DHT22;58887;51.980;4.464;2022-09-12T17:33:30;24.50;55.21
71184;DHT22;58887;51.980;4.464;2022-09-12T17:36:04;24.50;54.66
71184;DHT22;58887;51.980;4.464;2022-09-12T17:38:32;24.36;55.67
71184;DHT22;58887;51.980;4.464;2022-09-12T17:41:24;24.23;57.27
71184;DHT22;58887;51.980;4.464;2022-09-12T17:43:52;24.12;58.65
71184;DHT22;58887;51.980;4.464;2022-09-12T17:46:21;24.02;57.02
71184;DHT22;58887;51.980;4.464;2022-09-12T17:48:55;23.96;57.93
71184;DHT22;58887;51.980;4.464;2022-09-12T17:51:23;23.88;58.29
71184;DHT22;58887;51.980;4.464;2022-09-12T17:54:03;23.76;58.63
71184;DHT22;58887;51.980;4.464;2022-09-12T17:56:31;23.66;60.57
71184;DHT22;58887;51.980;4.464;2022-09-12T17:58:58;23.54;60.50
71184;DHT22;58887;51.980;4.464;2022-09-12T18:01:25;23.40;61.50
71184;DHT22;58887;51.980;4.464;2022-09-12T18:04:09;23.22;62.40
71184;DHT22;58887;51.980;4.464;2022-09-12T18:06:36;23.06;62.77
71184;DHT22;58887;51.980;4.464;2022-09-12T18:09:04;22.93;63.11
71184;DHT22;58887;51.980;4.464;2022-09-12T18:11:30;22.80;64.17
71184;DHT22;58887;51.980;4.464;2022-09-12T18:13:57;22.76;64.39
71184;DHT22;58887;51.980;4.464;2022-09-12T18:16:24;22.66;65.12
71184;DHT22;58887;51.980;4.464;2022-09-12T18:18:50;22.63;65.22
71184;DHT22;58887;51.980;4.464;2022-09-12T18:21:16;22.56;65.23
71184;DHT22;58887;51.980;4.464;2022-09-12T18:23:41;22.46;66.53
71184;DHT22;58887;51.980;4.464;2022-09-12T18:26:09;22.41;66.74
71184;DHT22;58887;51.980;4.464;2022-09-12T18:28:37;22.29;66.58
71184;DHT22;58887;51.980;4.464;2022-09-12T18:31:09;22.24;67.20
71184;DHT22;58887;51.980;4.464;2022-09-12T18:33:35;22.19;67.05
71184;DHT22;58887;51.980;4.464;2022-09-12T18:36:06;22.14;68.00